sensor_id;sensor_type;location;lat;lon;timestamp;temperature;humidity
44427;DHT22;30133;47.866;-4.222;2022-12-29T00:00:10;20.40;54.80
44427;DHT22;30133;47.866;-4.222;2022-12-29T00:02:37;20.40;54.80
44427;DHT22;30133;47.866;-4.222;2022-12-29T00:05:06;20.40;54.80
44427;DHT22;30133;47.866;-4.222;2022-12-29T00:07:32;20.40;55.30
44427;DHT22;30133;47.866;-4.222;2022-12-29T00:09:58;20.40;54.80
44427;DHT22;30133;47.866;-4.222;2022-12-29T00:12:24;20.40;54.80
44427;DHT22;30133;47.866;-4.222;2022-12-29T00:15:10;20.40;54.70
44427;DHT22;30133;47.866;-4.222;2022-12-29T00:17:55;20.40;54.70
44427;DHT22;30133;47.866;-4.222;2022-12-29T00:20:28;20.40;54.70
44427;DHT22;30133;47.866;-4.222;2022-12-29T00:23:12;20.40;54.70
44427;DHT22;30133;47.866;-4.222;2022-12-29T00:25:57;20.40;54.60
44427;DHT22;30133;47.866;-4.222;2022-12-29T00:28:41;20.40;54.80
44427;DHT22;30133;47.866;-4.222;2022-12-29T00:31:25;20.40;54.70
44427;DHT22;30133;47.866;-4.222;2022-12-29T00:34:10;20.30;54.80
44427;DHT22;30133;47.866;-4.222;2022-12-29T00:36:55;20.30;54.70
44427;DHT22;30133;47.866;-4.222;2022-12-29T00:39:21;20.30;54.80
44427;DHT22;30133;47.866;-4.222;2022-12-29T00:42:07;20.30;54.80
44427;DHT22;30133;47.866;-4.222;2022-12-29T00:44:53;20.30;54.70
44427;DHT22;30133;47.866;-4.222;2022-12-29T00:47:19;20.30;54.70
44427;DHT22;30133;47.866;-4.222;2022-12-29T00:49:45;20.30;54.60
44427;DHT22;30133;47.866;-4.222;2022-12-29T00:52:12;20.40;54.70
44427;DHT22;30133;47.866;-4.222;2022-12-29T00:54:40;20.40;54.60
44427;DHT22;30133;47.866;-4.222;2022-12-29T00:57:08;20.40;54.60
44427;DHT22;30133;47.866;-4.222;2022-12-29T00:59:36;20.40;54.60
44427;DHT22;30133;47.866;-4.222;2022-12-29T01:02:03;20.40;54.50
44427;DHT22;30133;47.866;-4.222;2022-12-29T01:04:29;20.40;54.50
44427;DHT22;30133;47.866;-4.222;2022-12-29T01:06:55;20.30;54.40
44427;DHT22;30133;47.866;-4.222;2022-12-29T01:09:21;20.30;54.40
44427;DHT22;30133;47.866;-4.222;2022-12-29T01:12:09;20.40;54.50
44427;DHT22;30133;47.866;-4.222;2022-12-29T01:14:36;20.30;54.40
44427;DHT22;30133;47.866;-4.222;2022-12-29T01:17:02;20.30;54.40
44427;DHT22;30133;47.866;-4.222;2022-12-29T01:19:29;20.40;54.40
44427;DHT22;30133;47.866;-4.222;2022-12-29T01:21:56;20.30;54.40
44427;DHT22;30133;47.866;-4.222;2022-12-29T01:24:22;20.30;54.40
44427;DHT22;30133;47.866;-4.222;2022-12-29T01:26:48;20.30;54.40
44427;DHT22;30133;47.866;-4.222;2022-12-29T01:29:14;20.30;54.40
44427;DHT22;30133;47.866;-4.222;2022-12-29T01:31:41;20.30;54.40
44427;DHT22;30133;47.866;-4.222;2022-12-29T01:34:07;20.30;54.40
44427;DHT22;30133;47.866;-4.222;2022-12-29T01:36:33;20.30;54.30
44427;DHT22;30133;47.866;-4.222;2022-12-29T01:38:59;20.30;54.30
44427;DHT22;30133;47.866;-4.222;2022-12-29T01:41:26;20.30;54.30
44427;DHT22;30133;47.866;-4.222;2022-12-29T01:43:54;20.30;54.30
44427;DHT22;30133;47.866;-4.222;2022-12-29T01:46:39;20.30;54.30
44427;DHT22;30133;47.866;-4.222;2022-12-29T01:49:19;20.30;54.30
44427;DHT22;30133;47.866;-4.222;2022-12-29T01:51:54;20.30;54.40
44427;DHT22;30133;47.866;-4.222;2022-12-29T01:54:28;20.30;54.40
44427;DHT22;30133;47.866;-4.222;2022-12-29T01:57:11;20.30;54.40
44427;DHT22;30133;47.866;-4.222;2022-12-29T01:59:50;20.30;54.30
44427;DHT22;30133;47.866;-4.222;2022-12-29T02:02:19;20.20;54.30
44427;DHT22;30133;47.866;-4.222;2022-12-29T02:04:45;20.20;54.30
44427;DHT22;30133;47.866;-4.222;2022-12-29T02:07:19;20.20;54.30
44427;DHT22;30133;47.866;-4.222;2022-12-29T02:09:51;20.20;54.30
44427;DHT22;30133;47.866;-4.222;2022-12-29T02:12:20;20.20;54.30
44427;DHT22;30133;47.866;-4.222;2022-12-29T02:14:47;20.20;54.30
44427;DHT22;30133;47.866;-4.222;2022-12-29T02:17:35;20.20;54.30
44427;DHT22;30133;47.866;-4.222;2022-12-29T02:20:34;20.30;54.30
44427;DHT22;30133;47.866;-4.222;2022-12-29T02:26:44;20.20;54.40
44427;DHT22;30133;47.866;-4.222;2022-12-29T02:32:46;20.20;54.40
44427;DHT22;30133;47.866;-4.222;2022-12-29T02:38:28;20.20;54.30
44427;DHT22;30133;47.866;-4.222;2022-12-29T02:41:21;20.20;54.40
44427;DHT22;30133;47.866;-4.222;2022-12-29T02:44:08;20.20;54.40
44427;DHT22;30133;47.866;-4.222;2022-12-29T02:49:36;20.20;54.30
44427;DHT22;30133;47.866;-4.222;2022-12-29T02:52:20;20.10;54.20
44427;DHT22;30133;47.866;-4.222;2022-12-29T02:54:50;20.10;54.30
44427;DHT22;30133;47.866;-4.222;2022-12-29T02:59:53;20.20;54.30
44427;DHT22;30133;47.866;-4.222;2022-12-29T03:02:37;20.10;54.20
44427;DHT22;30133;47.866;-4.222;2022-12-29T03:11:13;20.10;54.20
44427;DHT22;30133;47.866;-4.222;2022-12-29T03:14:11;20.10;54.30
44427;DHT22;30133;47.866;-4.222;2022-12-29T03:19:52;20.10;54.20
44427;DHT22;30133;47.866;-4.222;2022-12-29T03:22:28;20.10;54.20
44427;DHT22;30133;47.866;-4.222;2022-12-29T03:25:03;20.10;54.20
44427;DHT22;30133;47.866;-4.222;2022-12-29T03:27:41;20.10;54.10
44427;DHT22;30133;47.866;-4.222;2022-12-29T03:30:19;20.10;54.10
44427;DHT22;30133;47.866;-4.222;2022-12-29T03:32:49;20.10;54.10
44427;DHT22;30133;47.866;-4.222;2022-12-29T03:35:20;20.10;54.10
44427;DHT22;30133;47.866;-4.222;2022-12-29T03:40:43;20.10;54.00
44427;DHT22;30133;47.866;-4.222;2022-12-29T03:43:12;20.10;54.10
44427;DHT22;30133;47.866;-4.222;2022-12-29T03:45:39;20.10;54.10
44427;DHT22;30133;47.866;-4.222;2022-12-29T03:48:05;20.10;54.00
44427;DHT22;30133;47.866;-4.222;2022-12-29T03:50:31;20.10;54.00
44427;DHT22;30133;47.866;-4.222;2022-12-29T03:52:57;20.10;54.00
44427;DHT22;30133;47.866;-4.222;2022-12-29T03:55:23;20.10;54.00
44427;DHT22;30133;47.866;-4.222;2022-12-29T03:57:51;20.10;54.00
44427;DHT22;30133;47.866;-4.222;2022-12-29T04:00:17;20.10;54.00
44427;DHT22;30133;47.866;-4.222;2022-12-29T04:02:43;20.10;54.00
44427;DHT22;30133;47.866;-4.222;2022-12-29T04:05:09;20.10;54.00
44427;DHT22;30133;47.866;-4.222;2022-12-29T04:07:35;20.10;54.00
44427;DHT22;30133;47.866;-4.222;2022-12-29T04:10:02;20.10;54.00
44427;DHT22;30133;47.866;-4.222;2022-12-29T04:12:28;20.00;53.90
44427;DHT22;30133;47.866;-4.222;2022-12-29T04:14:54;20.10;53.90
44427;DHT22;30133;47.866;-4.222;2022-12-29T04:17:20;20.00;53.90
44427;DHT22;30133;47.866;-4.222;2022-12-29T04:19:46;20.00;53.90
44427;DHT22;30133;47.866;-4.222;2022-12-29T04:22:13;20.00;53.90
44427;DHT22;30133;47.866;-4.222;2022-12-29T04:24:39;20.00;53.90
44427;DHT22;30133;47.866;-4.222;2022-12-29T04:27:05;20.00;53.80
44427;DHT22;30133;47.866;-4.222;2022-12-29T04:29:31;20.00;53.80
44427;DHT22;30133;47.866;-4.222;2022-12-29T04:31:59;20.00;53.80
44427;DHT22;30133;47.866;-4.222;2022-12-29T04:34:31;20.00;53.80
44427;DHT22;30133;47.866;-4.222;2022-12-29T04:36:57;20.00;53.80
44427;DHT22;30133;47.866;-4.222;2022-12-29T04:39:23;20.00;53.80
44427;DHT22;30133;47.866;-4.222;2022-12-29T04:41:49;20.00;53.80
44427;DHT22;30133;47.866;-4.222;2022-12-29T04:44:15;20.00;53.80
44427;DHT22;30133;47.866;-4.222;2022-12-29T04:46:41;20.00;53.80
44427;DHT22;30133;47.866;-4.222;2022-12-29T04:49:07;20.00;53.80
44427;DHT22;30133;47.866;-4.222;2022-12-29T04:51:34;20.00;53.80
44427;DHT22;30133;47.866;-4.222;2022-12-29T04:54:00;20.00;53.80
44427;DHT22;30133;47.866;-4.222;2022-12-29T04:56:26;20.00;53.80
44427;DHT22;30133;47.866;-4.222;2022-12-29T04:58:52;20.00;53.80
44427;DHT22;30133;47.866;-4.222;2022-12-29T05:01:18;19.90;53.70
44427;DHT22;30133;47.866;-4.222;2022-12-29T05:03:44;19.90;53.70
44427;DHT22;30133;47.866;-4.222;2022-12-29T05:06:10;20.00;53.80
44427;DHT22;30133;47.866;-4.222;2022-12-29T05:08:37;20.00;53.80
44427;DHT22;30133;47.866;-4.222;2022-12-29T05:11:03;19.90;53.70
44427;DHT22;30133;47.866;-4.222;2022-12-29T05:13:29;19.90;53.70
44427;DHT22;30133;47.866;-4.222;2022-12-29T05:15:55;19.90;53.70
44427;DHT22;30133;47.866;-4.222;2022-12-29T05:18:21;19.90;53.70
44427;DHT22;30133;47.866;-4.222;2022-12-29T05:20:47;19.90;53.70
44427;DHT22;30133;47.866;-4.222;2022-12-29T05:23:14;19.90;53.70
44427;DHT22;30133;47.866;-4.222;2022-12-29T05:25:41;19.90;53.60
44427;DHT22;30133;47.866;-4.222;2022-12-29T05:28:10;19.90;53.60
44427;DHT22;30133;47.866;-4.222;2022-12-29T05:30:36;19.90;53.70
44427;DHT22;30133;47.866;-4.222;2022-12-29T05:33:02;19.90;53.70
44427;DHT22;30133;47.866;-4.222;2022-12-29T05:35:29;19.90;53.70
44427;DHT22;30133;47.866;-4.222;2022-12-29T05:37:55;19.90;53.70
44427;DHT22;30133;47.866;-4.222;2022-12-29T05:40:21;19.90;53.70
44427;DHT22;30133;47.866;-4.222;2022-12-29T05:42:47;19.90;53.70
44427;DHT22;30133;47.866;-4.222;2022-12-29T05:45:13;19.90;53.70
44427;DHT22;30133;47.866;-4.222;2022-12-29T05:47:39;19.90;53.70
44427;DHT22;30133;47.866;-4.222;2022-12-29T05:50:05;19.90;53.60
44427;DHT22;30133;47.866;-4.222;2022-12-29T05:52:31;19.90;53.60
44427;DHT22;30133;47.866;-4.222;2022-12-29T05:54:57;19.90;53.60
44427;DHT22;30133;47.866;-4.222;2022-12-29T05:57:23;19.90;53.70
44427;DHT22;30133;47.866;-4.222;2022-12-29T05:59:49;19.90;53.60
44427;DHT22;30133;47.866;-4.222;2022-12-29T06:02:15;19.90;53.60
44427;DHT22;30133;47.866;-4.222;2022-12-29T06:04:41;19.90;53.60
44427;DHT22;30133;47.866;-4.222;2022-12-29T06:07:07;19.90;53.60
44427;DHT22;30133;47.866;-4.222;2022-12-29T06:09:33;19.90;53.60
44427;DHT22;30133;47.866;-4.222;2022-12-29T06:11:59;19.90;53.60
44427;DHT22;30133;47.866;-4.222;2022-12-29T06:14:25;19.80;53.60
44427;DHT22;30133;47.866;-4.222;2022-12-29T06:16:51;19.90;53.60
44427;DHT22;30133;47.866;-4.222;2022-12-29T06:19:17;19.90;53.60
44427;DHT22;30133;47.866;-4.222;2022-12-29T06:21:43;19.90;53.60
44427;DHT22;30133;47.866;-4.222;2022-12-29T06:24:09;19.90;53.60
44427;DHT22;30133;47.866;-4.222;2022-12-29T06:26:36;19.80;53.50
44427;DHT22;30133;47.866;-4.222;2022-12-29T06:29:03;19.80;53.50
44427;DHT22;30133;47.866;-4.222;2022-12-29T06:31:29;19.90;53.60
44427;DHT22;30133;47.866;-4.222;2022-12-29T06:33:55;19.80;53.50
44427;DHT22;30133;47.866;-4.222;2022-12-29T06:36:21;19.90;53.60
44427;DHT22;30133;47.866;-4.222;2022-12-29T06:38:47;19.90;53.60
44427;DHT22;30133;47.866;-4.222;2022-12-29T06:41:13;19.80;53.50
44427;DHT22;30133;47.866;-4.222;2022-12-29T06:43:44;19.80;53.50
44427;DHT22;30133;47.866;-4.222;2022-12-29T06:46:10;19.80;53.50
44427;DHT22;30133;47.866;-4.222;2022-12-29T06:48:36;19.90;53.50
44427;DHT22;30133;47.866;-4.222;2022-12-29T06:51:03;19.80;53.50
44427;DHT22;30133;47.866;-4.222;2022-12-29T06:53:29;19.80;53.50
44427;DHT22;30133;47.866;-4.222;2022-12-29T06:55:55;19.80;53.50
44427;DHT22;30133;47.866;-4.222;2022-12-29T06:58:22;19.80;53.50
44427;DHT22;30133;47.866;-4.222;2022-12-29T07:00:48;19.80;53.50
44427;DHT22;30133;47.866;-4.222;2022-12-29T07:03:14;19.80;53.50
44427;DHT22;30133;47.866;-4.222;2022-12-29T07:05:40;19.80;53.50
44427;DHT22;30133;47.866;-4.222;2022-12-29T07:08:06;19.80;53.50
44427;DHT22;30133;47.866;-4.222;2022-12-29T07:10:32;19.80;53.50
44427;DHT22;30133;47.866;-4.222;2022-12-29T07:12:58;19.80;53.50
44427;DHT22;30133;47.866;-4.222;2022-12-29T07:15:24;19.80;53.50
44427;DHT22;30133;47.866;-4.222;2022-12-29T07:17:50;19.80;53.50
44427;DHT22;30133;47.866;-4.222;2022-12-29T07:20:16;19.80;53.50
44427;DHT22;30133;47.866;-4.222;2022-12-29T07:22:43;19.80;53.50
44427;DHT22;30133;47.866;-4.222;2022-12-29T07:25:09;19.80;53.50
44427;DHT22;30133;47.866;-4.222;2022-12-29T07:27:35;19.80;53.40
44427;DHT22;30133;47.866;-4.222;2022-12-29T07:30:01;19.80;53.40
44427;DHT22;30133;47.866;-4.222;2022-12-29T07:32:27;19.80;53.50
44427;DHT22;30133;47.866;-4.222;2022-12-29T07:34:53;19.70;53.40
44427;DHT22;30133;47.866;-4.222;2022-12-29T07:37:19;19.80;53.40
44427;DHT22;30133;47.866;-4.222;2022-12-29T07:39:45;19.80;53.40
44427;DHT22;30133;47.866;-4.222;2022-12-29T07:42:11;19.70;53.40
44427;DHT22;30133;47.866;-4.222;2022-12-29T07:44:37;19.80;53.40
44427;DHT22;30133;47.866;-4.222;2022-12-29T07:47:03;19.80;53.40
44427;DHT22;30133;47.866;-4.222;2022-12-29T07:49:29;19.70;53.30
44427;DHT22;30133;47.866;-4.222;2022-12-29T07:51:55;19.80;53.40
44427;DHT22;30133;47.866;-4.222;2022-12-29T07:54:21;19.80;53.40
44427;DHT22;30133;47.866;-4.222;2022-12-29T07:56:48;19.70;53.30
44427;DHT22;30133;47.866;-4.222;2022-12-29T07:59:14;19.70;53.30
44427;DHT22;30133;47.866;-4.222;2022-12-29T08:01:40;19.80;53.40
44427;DHT22;30133;47.866;-4.222;2022-12-29T08:04:06;19.70;53.30
44427;DHT22;30133;47.866;-4.222;2022-12-29T08:06:32;19.70;53.30
44427;DHT22;30133;47.866;-4.222;2022-12-29T08:08:58;19.70;53.30
44427;DHT22;30133;47.866;-4.222;2022-12-29T08:11:26;19.70;53.30
44427;DHT22;30133;47.866;-4.222;2022-12-29T08:13:52;19.70;53.30
44427;DHT22;30133;47.866;-4.222;2022-12-29T08:16:18;19.70;53.30
44427;DHT22;30133;47.866;-4.222;2022-12-29T08:18:44;19.70;53.30
44427;DHT22;30133;47.866;-4.222;2022-12-29T08:21:11;19.70;53.30
44427;DHT22;30133;47.866;-4.222;2022-12-29T08:23:38;19.70;53.30
44427;DHT22;30133;47.866;-4.222;2022-12-29T08:26:10;19.70;53.30
44427;DHT22;30133;47.866;-4.222;2022-12-29T08:28:38;19.70;53.30
44427;DHT22;30133;47.866;-4.222;2022-12-29T08:31:05;19.70;53.30
44427;DHT22;30133;47.866;-4.222;2022-12-29T08:33:31;19.70;53.30
44427;DHT22;30133;47.866;-4.222;2022-12-29T08:36:01;19.70;53.30
44427;DHT22;30133;47.866;-4.222;2022-12-29T08:38:29;19.70;53.30
44427;DHT22;30133;47.866;-4.222;2022-12-29T08:40:56;19.70;53.30
44427;DHT22;30133;47.866;-4.222;2022-12-29T08:43:22;19.70;53.30
44427;DHT22;30133;47.866;-4.222;2022-12-29T08:45:50;19.70;53.20
44427;DHT22;30133;47.866;-4.222;2022-12-29T08:48:19;19.70;53.20
44427;DHT22;30133;47.866;-4.222;2022-12-29T08:50:55;19.70;53.30
44427;DHT22;30133;47.866;-4.222;2022-12-29T08:53:30;19.70;53.20
44427;DHT22;30133;47.866;-4.222;2022-12-29T08:56:15;19.70;53.20
44427;DHT22;30133;47.866;-4.222;2022-12-29T08:58:44;19.70;53.30
44427;DHT22;30133;47.866;-4.222;2022-12-29T09:01:10;19.70;53.20
44427;DHT22;30133;47.866;-4.222;2022-12-29T09:03:38;19.70;53.20
44427;DHT22;30133;47.866;-4.222;2022-12-29T09:06:07;19.70;53.20
44427;DHT22;30133;47.866;-4.222;2022-12-29T09:08:35;19.70;53.40
44427;DHT22;30133;47.866;-4.222;2022-12-29T09:11:10;19.70;53.40
44427;DHT22;30133;47.866;-4.222;2022-12-29T09:13:41;19.70;53.50
44427;DHT22;30133;47.866;-4.222;2022-12-29T09:16:12;19.60;53.60
44427;DHT22;30133;47.866;-4.222;2022-12-29T09:18:40;19.60;53.70
44427;DHT22;30133;47.866;-4.222;2022-12-29T09:21:09;19.60;53.90
44427;DHT22;30133;47.866;-4.222;2022-12-29T09:23:36;19.60;54.00
44427;DHT22;30133;47.866;-4.222;2022-12-29T09:26:02;19.60;54.00
44427;DHT22;30133;47.866;-4.222;2022-12-29T09:28:33;19.60;53.50
44427;DHT22;30133;47.866;-4.222;2022-12-29T09:31:11;19.60;53.50
44427;DHT22;30133;47.866;-4.222;2022-12-29T09:33:44;19.60;53.70
44427;DHT22;30133;47.866;-4.222;2022-12-29T09:36:12;19.50;53.80
44427;DHT22;30133;47.866;-4.222;2022-12-29T09:38:38;19.60;53.90
44427;DHT22;30133;47.866;-4.222;2022-12-29T09:41:27;19.60;53.90
44427;DHT22;30133;47.866;-4.222;2022-12-29T09:46:39;19.60;54.20
44427;DHT22;30133;47.866;-4.222;2022-12-29T09:49:29;19.70;54.50
44427;DHT22;30133;47.866;-4.222;2022-12-29T09:52:27;19.70;54.40
44427;DHT22;30133;47.866;-4.222;2022-12-29T09:55:23;19.70;54.40
44427;DHT22;30133;47.866;-4.222;2022-12-29T09:57:59;19.80;54.40
44427;DHT22;30133;47.866;-4.222;2022-12-29T10:00:48;19.80;54.60
44427;DHT22;30133;47.866;-4.222;2022-12-29T10:03:20;19.80;54.70
44427;DHT22;30133;47.866;-4.222;2022-12-29T10:08:42;19.90;55.10
44427;DHT22;30133;47.866;-4.222;2022-12-29T10:11:23;20.00;55.00
44427;DHT22;30133;47.866;-4.222;2022-12-29T10:14:48;20.00;55.00
44427;DHT22;30133;47.866;-4.222;2022-12-29T10:20:38;20.10;54.80
44427;DHT22;30133;47.866;-4.222;2022-12-29T10:23:44;20.20;54.70
44427;DHT22;30133;47.866;-4.222;2022-12-29T10:26:24;20.20;54.60
44427;DHT22;30133;47.866;-4.222;2022-12-29T10:28:58;20.20;54.70
44427;DHT22;30133;47.866;-4.222;2022-12-29T10:31:49;20.20;55.10
44427;DHT22;30133;47.866;-4.222;2022-12-29T10:34:30;20.20;54.30
44427;DHT22;30133;47.866;-4.222;2022-12-29T10:39:49;20.20;53.90
44427;DHT22;30133;47.866;-4.222;2022-12-29T10:42:35;20.20;54.00
44427;DHT22;30133;47.866;-4.222;2022-12-29T10:45:12;20.20;54.10
44427;DHT22;30133;47.866;-4.222;2022-12-29T10:47:57;20.30;54.20
44427;DHT22;30133;47.866;-4.222;2022-12-29T10:50:35;20.30;54.10
44427;DHT22;30133;47.866;-4.222;2022-12-29T10:53:15;20.30;54.20
44427;DHT22;30133;47.866;-4.222;2022-12-29T10:55:46;20.30;54.00
44427;DHT22;30133;47.866;-4.222;2022-12-29T10:58:13;20.40;54.10
44427;DHT22;30133;47.866;-4.222;2022-12-29T11:00:47;20.40;53.80
44427;DHT22;30133;47.866;-4.222;2022-12-29T11:08:39;20.50;53.90
44427;DHT22;30133;47.866;-4.222;2022-12-29T11:11:10;20.50;53.80
44427;DHT22;30133;47.866;-4.222;2022-12-29T11:13:51;20.50;53.70
44427;DHT22;30133;47.866;-4.222;2022-12-29T11:16:33;20.50;53.60
44427;DHT22;30133;47.866;-4.222;2022-12-29T11:19:19;20.60;53.60
44427;DHT22;30133;47.866;-4.222;2022-12-29T11:21:55;20.60;53.50
44427;DHT22;30133;47.866;-4.222;2022-12-29T11:24:25;20.60;53.50
44427;DHT22;30133;47.866;-4.222;2022-12-29T11:27:08;20.60;53.30
44427;DHT22;30133;47.866;-4.222;2022-12-29T11:29:46;20.60;53.30
44427;DHT22;30133;47.866;-4.222;2022-12-29T11:32:23;20.70;53.30
44427;DHT22;30133;47.866;-4.222;2022-12-29T11:34:51;20.70;53.20
44427;DHT22;30133;47.866;-4.222;2022-12-29T11:37:36;20.70;53.20
44427;DHT22;30133;47.866;-4.222;2022-12-29T11:40:21;20.70;53.10
44427;DHT22;30133;47.866;-4.222;2022-12-29T11:43:00;20.70;53.10
44427;DHT22;30133;47.866;-4.222;2022-12-29T11:45:33;20.70;53.10
44427;DHT22;30133;47.866;-4.222;2022-12-29T11:48:06;20.70;53.00
44427;DHT22;30133;47.866;-4.222;2022-12-29T11:50:37;20.70;53.00
44427;DHT22;30133;47.866;-4.222;2022-12-29T11:53:15;20.70;53.00
44427;DHT22;30133;47.866;-4.222;2022-12-29T11:55:57;20.70;52.90
44427;DHT22;30133;47.866;-4.222;2022-12-29T11:58:30;20.80;52.90
44427;DHT22;30133;47.866;-4.222;2022-12-29T12:01:28;20.70;52.90
44427;DHT22;30133;47.866;-4.222;2022-12-29T12:04:34;20.70;52.80
44427;DHT22;30133;47.866;-4.222;2022-12-29T12:07:16;20.80;52.90
44427;DHT22;30133;47.866;-4.222;2022-12-29T12:10:00;20.80;52.90
44427;DHT22;30133;47.866;-4.222;2022-12-29T12:13:33;20.80;52.90
44427;DHT22;30133;47.866;-4.222;2022-12-29T12:16:35;20.70;52.80
44427;DHT22;30133;47.866;-4.222;2022-12-29T12:19:38;20.70;52.80
44427;DHT22;30133;47.866;-4.222;2022-12-29T12:25:24;20.70;52.80
44427;DHT22;30133;47.866;-4.222;2022-12-29T12:30:59;20.70;52.80
44427;DHT22;30133;47.866;-4.222;2022-12-29T12:33:35;20.70;52.80
44427;DHT22;30133;47.866;-4.222;2022-12-29T12:39:46;20.70;52.70
44427;DHT22;30133;47.866;-4.222;2022-12-29T12:42:29;20.70;52.80
44427;DHT22;30133;47.866;-4.222;2022-12-29T12:57:20;20.60;52.70
44427;DHT22;30133;47.866;-4.222;2022-12-29T13:24:27;20.60;52.60
44427;DHT22;30133;47.866;-4.222;2022-12-29T13:27:35;20.60;52.70
44427;DHT22;30133;47.866;-4.222;2022-12-29T13:42:03;20.50;52.60
44427;DHT22;30133;47.866;-4.222;2022-12-29T13:44:48;20.50;52.60
44427;DHT22;30133;47.866;-4.222;2022-12-29T13:49:57;20.50;52.70
44427;DHT22;30133;47.866;-4.222;2022-12-29T13:56:28;20.50;53.40
44427;DHT22;30133;47.866;-4.222;2022-12-29T14:01:30;20.50;52.70
44427;DHT22;30133;47.866;-4.222;2022-12-29T14:04:25;20.50;52.70
44427;DHT22;30133;47.866;-4.222;2022-12-29T14:07:04;20.50;52.70
44427;DHT22;30133;47.866;-4.222;2022-12-29T14:12:42;20.50;53.00
44427;DHT22;30133;47.866;-4.222;2022-12-29T14:15:23;20.50;53.30
44427;DHT22;30133;47.866;-4.222;2022-12-29T14:18:04;20.50;53.30
44427;DHT22;30133;47.866;-4.222;2022-12-29T14:23:40;20.50;53.10
44427;DHT22;30133;47.866;-4.222;2022-12-29T14:26:34;20.50;53.20
44427;DHT22;30133;47.866;-4.222;2022-12-29T14:29:51;20.60;53.50
44427;DHT22;30133;47.866;-4.222;2022-12-29T14:33:03;20.70;53.10
44427;DHT22;30133;47.866;-4.222;2022-12-29T14:35:43;20.70;53.30
44427;DHT22;30133;47.866;-4.222;2022-12-29T14:38:23;20.70;53.30
44427;DHT22;30133;47.866;-4.222;2022-12-29T14:40:51;20.70;53.30
44427;DHT22;30133;47.866;-4.222;2022-12-29T14:43:24;20.70;53.50
44427;DHT22;30133;47.866;-4.222;2022-12-29T14:46:00;20.60;53.40
44427;DHT22;30133;47.866;-4.222;2022-12-29T14:51:17;20.60;53.20
44427;DHT22;30133;47.866;-4.222;2022-12-29T14:53:51;20.70;53.30
44427;DHT22;30133;47.866;-4.222;2022-12-29T14:56:20;20.70;53.60
44427;DHT22;30133;47.866;-4.222;2022-12-29T14:58:54;20.70;53.30
44427;DHT22;30133;47.866;-4.222;2022-12-29T15:04:21;20.70;53.10
44427;DHT22;30133;47.866;-4.222;2022-12-29T15:06:54;20.60;53.10
44427;DHT22;30133;47.866;-4.222;2022-12-29T15:09:33;20.60;53.10
44427;DHT22;30133;47.866;-4.222;2022-12-29T15:12:52;20.60;53.00
44427;DHT22;30133;47.866;-4.222;2022-12-29T15:15:25;20.70;53.20
44427;DHT22;30133;47.866;-4.222;2022-12-29T15:17:52;20.60;53.10
44427;DHT22;30133;47.866;-4.222;2022-12-29T15:20:23;20.60;53.00
44427;DHT22;30133;47.866;-4.222;2022-12-29T15:22:55;20.60;52.80
44427;DHT22;30133;47.866;-4.222;2022-12-29T15:26:00;20.60;52.80
44427;DHT22;30133;47.866;-4.222;2022-12-29T15:28:40;20.70;52.80
44427;DHT22;30133;47.866;-4.222;2022-12-29T15:31:15;20.60;53.00
44427;DHT22;30133;47.866;-4.222;2022-12-29T15:33:45;20.70;53.00
44427;DHT22;30133;47.866;-4.222;2022-12-29T15:36:27;20.70;52.90
44427;DHT22;30133;47.866;-4.222;2022-12-29T15:38:54;20.80;52.70
44427;DHT22;30133;47.866;-4.222;2022-12-29T15:41:44;20.80;52.80
44427;DHT22;30133;47.866;-4.222;2022-12-29T15:44:35;20.80;52.50
44427;DHT22;30133;47.866;-4.222;2022-12-29T15:47:13;20.80;52.50
44427;DHT22;30133;47.866;-4.222;2022-12-29T15:49:44;20.90;52.50
44427;DHT22;30133;47.866;-4.222;2022-12-29T15:52:21;20.90;53.10
44427;DHT22;30133;47.866;-4.222;2022-12-29T15:54:51;20.90;52.70
44427;DHT22;30133;47.866;-4.222;2022-12-29T15:57:30;20.90;52.60
44427;DHT22;30133;47.866;-4.222;2022-12-29T16:00:03;20.90;52.50
44427;DHT22;30133;47.866;-4.222;2022-12-29T16:02:48;21.00;52.40
44427;DHT22;30133;47.866;-4.222;2022-12-29T16:05:18;21.00;52.30
44427;DHT22;30133;47.866;-4.222;2022-12-29T16:07:56;21.00;52.40
44427;DHT22;30133;47.866;-4.222;2022-12-29T16:10:38;21.10;52.50
44427;DHT22;30133;47.866;-4.222;2022-12-29T16:16:27;21.20;52.30
44427;DHT22;30133;47.866;-4.222;2022-12-29T16:18:55;21.20;52.30
44427;DHT22;30133;47.866;-4.222;2022-12-29T16:21:32;21.20;52.40
44427;DHT22;30133;47.866;-4.222;2022-12-29T16:24:07;21.10;52.40
44427;DHT22;30133;47.866;-4.222;2022-12-29T16:26:37;21.10;52.40
44427;DHT22;30133;47.866;-4.222;2022-12-29T16:29:06;21.20;52.50
44427;DHT22;30133;47.866;-4.222;2022-12-29T16:31:54;21.20;52.30
44427;DHT22;30133;47.866;-4.222;2022-12-29T16:37:35;21.30;52.30
44427;DHT22;30133;47.866;-4.222;2022-12-29T16:40:24;21.30;52.30
44427;DHT22;30133;47.866;-4.222;2022-12-29T16:43:00;21.30;52.50
44427;DHT22;30133;47.866;-4.222;2022-12-29T16:48:32;21.40;52.60
44427;DHT22;30133;47.866;-4.222;2022-12-29T16:51:14;21.40;52.50
44427;DHT22;30133;47.866;-4.222;2022-12-29T16:53:49;21.40;52.50
44427;DHT22;30133;47.866;-4.222;2022-12-29T16:56:22;21.40;52.50
44427;DHT22;30133;47.866;-4.222;2022-12-29T17:01:37;21.30;52.20
44427;DHT22;30133;47.866;-4.222;2022-12-29T17:04:09;21.30;52.50
44427;DHT22;30133;47.866;-4.222;2022-12-29T17:06:37;21.30;52.60
44427;DHT22;30133;47.866;-4.222;2022-12-29T17:09:23;21.30;52.50
44427;DHT22;30133;47.866;-4.222;2022-12-29T17:11:55;21.40;52.40
44427;DHT22;30133;47.866;-4.222;2022-12-29T17:14:45;21.40;52.30
44427;DHT22;30133;47.866;-4.222;2022-12-29T17:17:35;21.40;52.30
44427;DHT22;30133;47.866;-4.222;2022-12-29T17:22:50;21.40;52.20
44427;DHT22;30133;47.866;-4.222;2022-12-29T17:25:23;21.40;52.10
44427;DHT22;30133;47.866;-4.222;2022-12-29T17:27:55;21.40;52.30
44427;DHT22;30133;47.866;-4.222;2022-12-29T17:30:26;21.50;52.40
44427;DHT22;30133;47.866;-4.222;2022-12-29T17:32:59;21.50;52.40
44427;DHT22;30133;47.866;-4.222;2022-12-29T17:35:35;21.50;52.40
44427;DHT22;30133;47.866;-4.222;2022-12-29T17:38:01;21.40;52.40
44427;DHT22;30133;47.866;-4.222;2022-12-29T17:40:29;21.50;52.40
44427;DHT22;30133;47.866;-4.222;2022-12-29T17:42:58;21.50;52.40
44427;DHT22;30133;47.866;-4.222;2022-12-29T17:45:28;21.40;52.30
44427;DHT22;30133;47.866;-4.222;2022-12-29T17:47:56;21.50;52.30
44427;DHT22;30133;47.866;-4.222;2022-12-29T17:50:28;21.50;52.20
44427;DHT22;30133;47.866;-4.222;2022-12-29T17:53:03;21.50;52.00
44427;DHT22;30133;47.866;-4.222;2022-12-29T17:55:31;21.50;51.90
44427;DHT22;30133;47.866;-4.222;2022-12-29T17:57:58;21.50;51.90
44427;DHT22;30133;47.866;-4.222;2022-12-29T18:00:27;21.50;51.90
44427;DHT22;30133;47.866;-4.222;2022-12-29T18:02:57;21.50;51.90
44427;DHT22;30133;47.866;-4.222;2022-12-29T18:05:27;21.60;51.90
44427;DHT22;30133;47.866;-4.222;2022-12-29T18:07:58;21.60;51.80
44427;DHT22;30133;47.866;-4.222;2022-12-29T18:10:26;21.60;51.70